createdAt,value
2023-05-14T00:00:58.466Z,15.11
2023-05-14T00:03:26.440Z,15.09
2023-05-14T00:05:54.274Z,15.23
2023-05-14T00:08:23.389Z,14.96
2023-05-14T00:10:51.154Z,15.47
2023-05-14T00:13:18.906Z,15.63
2023-05-14T00:15:46.771Z,15.11
2023-05-14T00:18:14.603Z,15.45
2023-05-14T00:20:42.363Z,15.13
2023-05-14T00:23:10.709Z,15.14
2023-05-14T00:25:40.029Z,15.03
2023-05-14T00:28:07.823Z,14.97
2023-05-14T00:30:35.543Z,14.63
2023-05-14T00:33:03.298Z,14.57
2023-05-14T00:35:31.493Z,14.66
2023-05-14T00:37:59.217Z,15.04
2023-05-14T00:40:27.996Z,15.24
2023-05-14T00:42:57.528Z,15.23
2023-05-14T00:45:25.717Z,15.72
2023-05-14T00:47:54.597Z,15.63
2023-05-14T00:50:22.867Z,15.36
2023-05-14T00:52:50.848Z,14.70
2023-05-14T00:55:20.229Z,14.61
2023-05-14T00:57:47.988Z,14.39
2023-05-14T01:00:18.186Z,14.53
2023-05-14T01:02:46.376Z,14.59
2023-05-14T01:05:14.183Z,14.70
2023-05-14T01:07:50.418Z,14.85
2023-05-14T01:10:25.141Z,14.87
2023-05-14T01:13:03.427Z,14.02
2023-05-14T01:15:34.341Z,14.42
2023-05-14T01:18:06.016Z,14.52
2023-05-14T01:20:33.915Z,14.54
2023-05-14T01:23:03.153Z,14.54
2023-05-14T01:25:32.245Z,14.28
2023-05-14T01:28:05.102Z,14.43
2023-05-14T01:30:37.460Z,14.32
2023-05-14T01:33:08.993Z,14.13
2023-05-14T01:35:36.975Z,13.92
2023-05-14T01:38:10.471Z,13.91
2023-05-14T01:40:38.370Z,13.80
2023-05-14T01:43:06.738Z,13.99
2023-05-14T01:45:36.522Z,14.20
2023-05-14T01:48:05.293Z,13.85
2023-05-14T01:50:33.137Z,14.04
2023-05-14T01:53:00.936Z,13.85
2023-05-14T01:55:30.073Z,14.07
2023-05-14T01:57:57.805Z,13.71
2023-05-14T02:00:26.480Z,13.90
2023-05-14T02:02:54.545Z,14.02
2023-05-14T02:05:22.424Z,14.19
2023-05-14T02:07:50.195Z,14.10
2023-05-14T02:10:17.952Z,13.84
2023-05-14T02:12:47.080Z,13.87
2023-05-14T02:15:14.916Z,13.91
2023-05-14T02:17:42.723Z,13.97
2023-05-14T02:20:11.534Z,14.11
2023-05-14T02:22:42.157Z,14.22
2023-05-14T02:25:11.084Z,14.13
2023-05-14T02:27:38.841Z,13.67
2023-05-14T02:30:09.773Z,13.50
2023-05-14T02:32:38.153Z,13.52
2023-05-14T02:35:06.932Z,13.48
2023-05-14T02:37:35.624Z,13.51
2023-05-14T02:40:04.417Z,13.42
2023-05-14T02:42:32.547Z,13.96
2023-05-14T02:45:00.441Z,14.11
2023-05-14T02:47:29.614Z,13.85
2023-05-14T02:49:57.357Z,13.83
2023-05-14T02:52:25.183Z,13.91
2023-05-14T02:54:53.063Z,13.94
2023-05-14T02:57:21.151Z,13.38
2023-05-14T02:59:48.957Z,13.72
2023-05-14T03:02:17.247Z,13.96
2023-05-14T03:04:47.314Z,13.60
2023-05-14T03:07:15.164Z,13.53
2023-05-14T03:09:42.859Z,13.58
2023-05-14T03:12:10.709Z,13.24
2023-05-14T03:14:38.443Z,13.42
2023-05-14T03:17:06.650Z,13.28
2023-05-14T03:19:34.494Z,13.09
2023-05-14T03:22:03.749Z,13.55
2023-05-14T03:24:31.549Z,13.55
2023-05-14T03:26:59.274Z,13.14
2023-05-14T03:29:27.058Z,13.15
2023-05-14T03:31:54.812Z,13.25
2023-05-14T03:34:22.522Z,13.14
2023-05-14T03:36:50.312Z,13.54
2023-05-14T03:39:20.078Z,13.20
2023-05-14T03:41:47.999Z,13.04
2023-05-14T03:44:15.889Z,13.07
2023-05-14T03:46:43.550Z,13.01
2023-05-14T03:49:11.360Z,13.24
2023-05-14T03:51:39.132Z,13.58
2023-05-14T03:54:08.027Z,13.50
2023-05-14T03:56:37.122Z,13.31
2023-05-14T03:59:04.934Z,13.76
2023-05-14T04:01:32.652Z,13.33
2023-05-14T04:04:00.469Z,13.31
2023-05-14T04:06:28.406Z,13.98
2023-05-14T04:08:56.108Z,14.08
2023-05-14T04:11:23.870Z,13.91
2023-05-14T04:13:52.978Z,14.25
2023-05-14T04:16:20.734Z,13.63
2023-05-14T04:18:48.524Z,13.94
2023-05-14T04:21:16.271Z,13.57
2023-05-14T04:23:44.016Z,13.70
2023-05-14T04:26:11.776Z,13.50
2023-05-14T04:28:39.509Z,14.06
2023-05-14T04:31:08.589Z,14.03
2023-05-14T04:33:36.322Z,14.50
2023-05-14T04:36:05.068Z,14.70
2023-05-14T04:38:32.918Z,14.41
2023-05-14T04:41:00.701Z,14.45
2023-05-14T04:43:28.509Z,14.24
2023-05-14T04:45:56.352Z,14.39
2023-05-14T04:48:26.142Z,14.76
2023-05-14T04:50:53.867Z,14.67
2023-05-14T04:53:21.683Z,15.03
2023-05-14T04:55:49.431Z,15.11
2023-05-14T04:58:17.159Z,14.96
2023-05-14T05:00:45.451Z,15.07
2023-05-14T05:03:13.326Z,15.70
2023-05-14T05:05:42.620Z,15.50
2023-05-14T05:08:11.399Z,15.33
2023-05-14T05:10:39.130Z,15.67
2023-05-14T05:13:06.879Z,15.59
2023-05-14T05:15:34.592Z,15.69
2023-05-14T05:18:02.354Z,15.83
2023-05-14T05:20:30.097Z,16.42
2023-05-14T05:22:59.506Z,16.43
2023-05-14T05:25:27.216Z,16.88
2023-05-14T05:27:54.919Z,16.75
2023-05-14T05:30:22.871Z,17.23
2023-05-14T05:32:50.923Z,17.01
2023-05-14T05:35:18.751Z,17.01
2023-05-14T05:37:46.478Z,16.81
2023-05-14T05:40:15.906Z,17.41
2023-05-14T05:42:43.661Z,17.64
2023-05-14T05:45:11.962Z,17.65
2023-05-14T05:47:39.727Z,18.18
2023-05-14T05:50:08.906Z,17.80
2023-05-14T05:52:36.723Z,18.17
2023-05-14T05:55:04.775Z,18.33
2023-05-14T05:57:33.879Z,18.23
2023-05-14T06:00:07.925Z,18.14
2023-05-14T06:02:35.844Z,19.28
2023-05-14T06:05:03.817Z,19.14
2023-05-14T06:07:31.949Z,18.92
2023-05-14T06:09:59.689Z,18.82
2023-05-14T06:12:27.468Z,18.76
2023-05-14T06:14:57.846Z,19.42
2023-05-14T06:17:25.708Z,19.27
2023-05-14T06:19:53.746Z,19.24
2023-05-14T06:22:21.471Z,19.16
2023-05-14T06:24:49.421Z,19.44
2023-05-14T06:27:17.182Z,19.90
2023-05-14T06:29:44.964Z,20.17
2023-05-14T06:32:15.625Z,19.71
2023-05-14T06:34:43.841Z,20.15
2023-05-14T06:37:12.780Z,19.99
2023-05-14T06:39:44.153Z,19.67
2023-05-14T06:42:11.882Z,19.87
2023-05-14T06:44:39.653Z,20.71
2023-05-14T06:47:08.576Z,20.67
2023-05-14T06:49:37.739Z,20.33
2023-05-14T06:52:05.989Z,20.62
2023-05-14T06:54:33.767Z,20.74
2023-05-14T06:57:01.528Z,20.88
2023-05-14T06:59:29.332Z,21.19
2023-05-14T07:01:57.151Z,21.49
2023-05-14T07:04:25.076Z,21.03
2023-05-14T07:06:54.242Z,21.98
2023-05-14T07:09:22.004Z,22.37
2023-05-14T07:11:49.841Z,22.19
2023-05-14T07:14:17.604Z,22.78
2023-05-14T07:16:46.911Z,22.79
2023-05-14T07:19:14.801Z,22.35
2023-05-14T07:21:44.525Z,21.59
2023-05-14T07:24:13.649Z,22.33
2023-05-14T07:26:41.486Z,21.93
2023-05-14T07:29:09.436Z,22.34
2023-05-14T07:31:37.346Z,21.97
2023-05-14T07:34:05.120Z,21.76
2023-05-14T07:36:33.000Z,22.67
2023-05-14T07:39:00.772Z,23.57
2023-05-14T07:41:29.851Z,23.10
2023-05-14T07:43:57.605Z,23.93
2023-05-14T07:46:25.847Z,23.76
2023-05-14T07:48:53.601Z,23.52
2023-05-14T07:51:21.304Z,23.30
2023-05-14T07:53:49.049Z,22.77
2023-05-14T07:56:16.832Z,23.41
2023-05-14T07:58:46.145Z,23.32
2023-05-14T08:01:13.856Z,22.82
2023-05-14T08:03:41.651Z,23.47
2023-05-14T08:06:09.677Z,23.01
2023-05-14T08:08:37.426Z,23.32
2023-05-14T08:11:05.501Z,24.46
2023-05-14T08:13:33.405Z,25.19
2023-05-14T08:16:02.805Z,25.68
2023-05-14T08:18:30.641Z,26.15
2023-05-14T08:20:58.387Z,24.76
2023-05-14T08:23:26.435Z,24.28
2023-05-14T08:25:54.187Z,25.49
2023-05-14T08:28:22.121Z,25.30
2023-05-14T08:30:49.899Z,24.82
2023-05-14T08:33:19.170Z,24.54
2023-05-14T08:35:46.884Z,24.96
2023-05-14T08:38:14.643Z,25.10
2023-05-14T08:40:42.579Z,25.65
2023-05-14T08:43:12.427Z,25.83
2023-05-14T08:45:41.376Z,25.58
2023-05-14T08:48:16.098Z,26.01
2023-05-14T08:50:45.480Z,25.40
2023-05-14T08:53:13.231Z,26.14
2023-05-14T08:55:41.458Z,25.56
2023-05-14T08:58:09.220Z,25.54
2023-05-14T09:00:37.325Z,25.55
2023-05-14T09:03:06.712Z,24.83
2023-05-14T09:05:34.812Z,25.69
2023-05-14T09:08:04.081Z,25.46
2023-05-14T09:10:32.526Z,26.45
2023-05-14T09:13:00.294Z,26.86
2023-05-14T09:15:30.067Z,27.08
2023-05-14T09:17:58.558Z,26.94
2023-05-14T09:20:28.920Z,26.73
2023-05-14T09:22:56.889Z,26.95
2023-05-14T09:25:32.020Z,26.85
2023-05-14T09:28:00.219Z,26.65
2023-05-14T09:30:28.074Z,26.46
2023-05-14T09:32:56.305Z,26.19
2023-05-14T09:35:25.688Z,26.80
2023-05-14T09:37:55.198Z,27.40
2023-05-14T09:40:25.150Z,27.88
2023-05-14T09:42:54.685Z,27.51
2023-05-14T09:45:22.473Z,27.64
2023-05-14T09:47:50.480Z,27.19
2023-05-14T09:50:18.291Z,27.33
2023-05-14T09:52:46.058Z,27.36
2023-05-14T09:55:14.492Z,27.69
2023-05-14T09:57:42.271Z,28.16
2023-05-14T10:00:12.728Z,27.87
2023-05-14T10:02:42.523Z,27.02
2023-05-14T10:05:11.404Z,27.07
2023-05-14T10:07:43.515Z,26.93
2023-05-14T10:10:16.497Z,27.95
2023-05-14T10:12:47.436Z,27.44
2023-05-14T10:15:20.707Z,27.61
2023-05-14T10:17:53.840Z,29.18
2023-05-14T10:20:23.935Z,29.09
2023-05-14T10:22:52.215Z,29.37
2023-05-14T10:25:20.720Z,30.03
2023-05-14T10:27:48.790Z,30.45
2023-05-14T10:30:17.929Z,28.71
2023-05-14T10:32:45.659Z,29.43
2023-05-14T10:35:18.141Z,28.55
2023-05-14T10:37:47.101Z,27.29
2023-05-14T10:40:15.368Z,28.06
2023-05-14T10:42:44.654Z,27.61
2023-05-14T10:45:14.015Z,29.04
2023-05-14T10:47:44.296Z,27.61
2023-05-14T10:50:15.076Z,29.09
2023-05-14T10:52:44.022Z,29.31
2023-05-14T10:55:15.393Z,30.29
2023-05-14T10:57:44.929Z,31.66
2023-05-14T11:00:14.673Z,30.94
2023-05-14T11:02:45.100Z,31.45
2023-05-14T11:05:15.937Z,29.59
2023-05-14T11:07:45.758Z,28.61
2023-05-14T11:10:14.857Z,28.23
2023-05-14T11:12:44.791Z,27.49
2023-05-14T11:15:13.861Z,28.48
2023-05-14T11:17:44.810Z,27.40
2023-05-14T11:20:13.774Z,29.06
2023-05-14T11:22:43.075Z,29.82
2023-05-14T11:25:14.520Z,29.51
2023-05-14T11:27:44.685Z,28.42
2023-05-14T11:30:17.298Z,28.07
2023-05-14T11:32:48.860Z,29.90
2023-05-14T11:35:17.469Z,28.50
2023-05-14T11:37:50.540Z,29.19
2023-05-14T11:40:18.836Z,28.42
2023-05-14T11:42:46.712Z,29.50
2023-05-14T11:45:15.472Z,28.37
2023-05-14T11:47:43.529Z,26.68
2023-05-14T11:50:12.788Z,26.72
2023-05-14T11:52:41.934Z,26.88
2023-05-14T11:55:12.779Z,26.18
2023-05-14T11:57:41.449Z,26.49
2023-05-14T12:00:13.460Z,26.65
2023-05-14T12:02:41.361Z,27.06
2023-05-14T12:05:11.664Z,27.47
2023-05-14T12:07:41.926Z,26.51
2023-05-14T12:10:13.216Z,27.19
2023-05-14T12:12:41.037Z,26.86
2023-05-14T12:15:12.726Z,26.70
2023-05-14T12:17:40.706Z,27.02
2023-05-14T12:20:11.710Z,27.20
2023-05-14T12:22:43.395Z,26.26
2023-05-14T12:25:14.312Z,26.91
2023-05-14T12:27:42.519Z,27.63
2023-05-14T12:30:21.424Z,28.47
2023-05-14T12:32:51.829Z,27.74
2023-05-14T12:35:19.962Z,27.63
2023-05-14T12:37:49.120Z,26.82
2023-05-14T12:40:16.854Z,26.35
2023-05-14T12:42:44.606Z,26.74
2023-05-14T12:45:12.963Z,27.06
2023-05-14T12:47:40.720Z,26.55
2023-05-14T12:50:09.428Z,26.28
2023-05-14T12:52:39.700Z,27.17
2023-05-14T12:55:10.149Z,27.85
2023-05-14T12:57:39.104Z,27.86
2023-05-14T13:00:08.595Z,28.26
2023-05-14T13:02:43.151Z,28.86
2023-05-14T13:05:11.846Z,27.98
2023-05-14T13:07:39.717Z,27.49
2023-05-14T13:10:09.888Z,28.89
2023-05-14T13:12:38.675Z,28.77
2023-05-14T13:15:07.325Z,28.75
2023-05-14T13:17:35.102Z,29.39
2023-05-14T13:20:02.940Z,29.08
2023-05-14T13:22:30.836Z,29.78
2023-05-14T13:24:58.863Z,30.28
2023-05-14T13:27:28.137Z,30.05
2023-05-14T13:29:55.863Z,28.78
2023-05-14T13:32:23.659Z,30.02
2023-05-14T13:34:51.473Z,30.10
2023-05-14T13:37:19.287Z,31.30
2023-05-14T13:39:46.998Z,31.12
2023-05-14T13:42:14.736Z,31.75
2023-05-14T13:44:43.825Z,30.71
2023-05-14T13:47:11.635Z,31.18
2023-05-14T13:49:40.351Z,29.25
2023-05-14T13:52:08.210Z,29.92
2023-05-14T13:54:35.965Z,30.70
2023-05-14T13:57:03.706Z,29.20
2023-05-14T13:59:31.408Z,28.07
2023-05-14T14:02:00.572Z,27.58
2023-05-14T14:04:29.030Z,26.72
2023-05-14T14:06:57.242Z,25.41
2023-05-14T14:09:25.425Z,24.81
2023-05-14T14:11:53.405Z,24.35
2023-05-14T14:14:21.376Z,24.15
2023-05-14T14:16:49.090Z,24.06
2023-05-14T14:19:18.669Z,24.12
2023-05-14T14:21:46.561Z,23.64
2023-05-14T14:24:14.309Z,22.84
2023-05-14T14:26:42.065Z,22.17
2023-05-14T14:29:09.801Z,23.07
2023-05-14T14:31:37.709Z,23.32
2023-05-14T14:34:05.546Z,23.24
2023-05-14T14:36:34.625Z,22.88
2023-05-14T14:39:02.457Z,22.94
2023-05-14T14:41:30.239Z,23.31
2023-05-14T14:43:58.434Z,23.06
2023-05-14T14:46:26.240Z,22.65
2023-05-14T14:48:54.000Z,22.78
2023-05-14T14:51:21.818Z,22.49
2023-05-14T14:53:50.897Z,22.71
2023-05-14T14:56:18.606Z,22.68
2023-05-14T14:58:46.522Z,22.73
2023-05-14T15:01:14.368Z,22.70
2023-05-14T15:03:42.698Z,23.13
2023-05-14T15:06:10.515Z,22.97
2023-05-14T15:08:38.411Z,22.81
2023-05-14T15:11:08.501Z,23.14
2023-05-14T15:13:36.215Z,23.45
2023-05-14T15:16:04.016Z,23.29
2023-05-14T15:18:31.753Z,23.56
2023-05-14T15:20:59.538Z,24.48
2023-05-14T15:23:27.259Z,24.90
2023-05-14T15:25:55.001Z,25.08
2023-05-14T15:28:24.091Z,24.68
2023-05-14T15:30:51.866Z,25.07
2023-05-14T15:33:19.824Z,24.55
2023-05-14T15:35:47.751Z,24.95
2023-05-14T15:38:15.495Z,25.09
2023-05-14T15:40:43.295Z,27.26
2023-05-14T15:43:11.074Z,27.24
2023-05-14T15:45:40.191Z,26.74
2023-05-14T15:48:08.002Z,26.48
2023-05-14T15:50:35.783Z,25.90
2023-05-14T15:53:03.632Z,25.29
2023-05-14T15:55:31.453Z,25.20
2023-05-14T15:57:59.268Z,24.68
2023-05-14T16:00:27.183Z,24.47
2023-05-14T16:02:56.419Z,23.96
2023-05-14T16:05:24.211Z,24.69
2023-05-14T16:07:52.044Z,25.05
2023-05-14T16:10:22.190Z,24.61
2023-05-14T16:12:50.062Z,25.14
2023-05-14T16:15:17.965Z,25.46
2023-05-14T16:17:45.845Z,26.31
2023-05-14T16:20:15.135Z,25.07
2023-05-14T16:22:42.869Z,25.69
2023-05-14T16:25:10.786Z,25.07
2023-05-14T16:27:38.612Z,24.88
2023-05-14T16:30:07.915Z,24.77
2023-05-14T16:32:35.677Z,25.14
2023-05-14T16:35:03.445Z,25.23
2023-05-14T16:37:32.604Z,24.55
2023-05-14T16:40:00.326Z,24.81
2023-05-14T16:42:28.057Z,24.66
2023-05-14T16:44:55.767Z,25.02
2023-05-14T16:47:23.541Z,24.62
2023-05-14T16:49:51.268Z,24.32
2023-05-14T16:52:18.999Z,24.45
2023-05-14T16:54:48.163Z,24.83
2023-05-14T16:57:16.157Z,25.15
2023-05-14T16:59:43.929Z,24.91
2023-05-14T17:02:11.660Z,24.14
2023-05-14T17:04:42.081Z,24.14
2023-05-14T17:07:10.019Z,24.58
2023-05-14T17:09:37.769Z,24.55
2023-05-14T17:12:07.957Z,24.30
2023-05-14T17:14:35.826Z,23.90
2023-05-14T17:17:03.544Z,23.80
2023-05-14T17:19:31.235Z,23.92
2023-05-14T17:21:59.033Z,23.73
2023-05-14T17:24:26.741Z,23.83
2023-05-14T17:26:54.663Z,23.58
2023-05-14T17:29:23.801Z,23.56
2023-05-14T17:31:51.864Z,23.21
2023-05-14T17:34:19.693Z,23.91
2023-05-14T17:36:47.432Z,23.61
2023-05-14T17:39:15.212Z,24.13
2023-05-14T17:41:43.232Z,24.26
2023-05-14T17:44:12.894Z,23.77
2023-05-14T17:46:42.604Z,23.86
2023-05-14T17:49:11.809Z,23.70
2023-05-14T17:51:39.566Z,23.81
2023-05-14T17:54:07.333Z,23.65
2023-05-14T17:56:35.227Z,23.34
2023-05-14T17:59:02.979Z,23.98
2023-05-14T18:01:30.906Z,23.47
2023-05-14T18:04:00.188Z,23.38
2023-05-14T18:06:28.032Z,23.22
2023-05-14T18:08:55.834Z,23.31
2023-05-14T18:11:23.565Z,23.61
2023-05-14T18:13:51.316Z,23.03
2023-05-14T18:16:19.165Z,23.28
2023-05-14T18:18:47.691Z,23.61
2023-05-14T18:21:16.971Z,22.91
2023-05-14T18:23:44.752Z,22.79
2023-05-14T18:26:12.554Z,22.74
2023-05-14T18:28:40.297Z,22.56
2023-05-14T18:31:08.115Z,22.60
2023-05-14T18:33:35.957Z,22.40
2023-05-14T18:36:04.006Z,21.99
2023-05-14T18:38:33.118Z,22.24
2023-05-14T18:41:00.837Z,22.12
2023-05-14T18:43:28.611Z,22.29
2023-05-14T18:45:56.410Z,21.82
2023-05-14T18:48:24.292Z,21.95
2023-05-14T18:50:52.196Z,21.47
2023-05-14T18:53:19.926Z,21.84
2023-05-14T18:55:49.195Z,21.62
2023-05-14T18:58:17.643Z,21.43
2023-05-14T19:00:45.354Z,21.48
2023-05-14T19:03:13.151Z,21.72
2023-05-14T19:05:41.049Z,21.51
2023-05-14T19:08:08.778Z,21.59
2023-05-14T19:10:36.570Z,21.53
2023-05-14T19:13:05.669Z,21.29
2023-05-14T19:15:33.520Z,21.37
2023-05-14T19:18:01.670Z,21.33
2023-05-14T19:20:29.513Z,20.95
2023-05-14T19:22:57.234Z,20.73
2023-05-14T19:25:25.610Z,20.64
2023-05-14T19:27:55.222Z,20.60
2023-05-14T19:30:24.444Z,20.76
2023-05-14T19:32:52.742Z,20.57
2023-05-14T19:35:20.505Z,20.67
2023-05-14T19:37:48.223Z,20.69
2023-05-14T19:40:15.976Z,20.62
2023-05-14T19:42:43.691Z,20.67
2023-05-14T19:45:12.316Z,20.68
2023-05-14T19:47:42.762Z,20.71
2023-05-14T19:50:11.315Z,20.73
2023-05-14T19:52:39.021Z,20.34
2023-05-14T19:55:07.169Z,20.32
2023-05-14T19:57:34.890Z,20.40
2023-05-14T20:00:03.360Z,20.17
2023-05-14T20:02:32.206Z,20.33
2023-05-14T20:05:01.642Z,20.15
2023-05-14T20:07:29.425Z,20.24
2023-05-14T20:09:57.198Z,20.17
2023-05-14T20:12:24.952Z,20.15
2023-05-14T20:14:52.674Z,20.23
2023-05-14T20:17:20.909Z,20.07
2023-05-14T20:19:48.763Z,19.90
2023-05-14T20:22:17.858Z,20.06
2023-05-14T20:24:45.592Z,19.60
2023-05-14T20:27:13.377Z,19.67
2023-05-14T20:29:41.179Z,19.80
2023-05-14T20:32:09.297Z,19.94
2023-05-14T20:34:37.028Z,20.02
2023-05-14T20:37:05.368Z,19.95
2023-05-14T20:39:34.493Z,19.83
2023-05-14T20:42:02.236Z,19.70
2023-05-14T20:44:29.980Z,19.64
2023-05-14T20:46:57.780Z,20.05
2023-05-14T20:49:25.553Z,19.63
2023-05-14T20:51:53.302Z,19.79
2023-05-14T20:54:21.088Z,19.84
2023-05-14T20:56:50.258Z,19.80
2023-05-14T20:59:17.990Z,20.22
2023-05-14T21:01:45.755Z,20.18
2023-05-14T21:04:13.749Z,19.97
2023-05-14T21:06:41.726Z,19.52
2023-05-14T21:09:10.679Z,19.73
2023-05-14T21:11:38.499Z,20.04
2023-05-14T21:14:07.651Z,19.26
2023-05-14T21:16:35.550Z,19.67
2023-05-14T21:19:03.341Z,19.39
2023-05-14T21:21:31.135Z,19.73
2023-05-14T21:23:58.840Z,19.65
2023-05-14T21:26:27.260Z,19.55
2023-05-14T21:28:54.993Z,19.72
2023-05-14T21:31:24.141Z,19.32
2023-05-14T21:33:51.903Z,19.47
2023-05-14T21:36:20.417Z,19.30
2023-05-14T21:38:48.287Z,19.23
2023-05-14T21:41:16.390Z,19.18
2023-05-14T21:43:45.143Z,19.46
2023-05-14T21:46:12.883Z,19.63
2023-05-14T21:48:42.015Z,19.16
2023-05-14T21:51:09.768Z,19.00
2023-05-14T21:53:37.476Z,19.49
2023-05-14T21:56:06.076Z,19.08
2023-05-14T21:58:33.812Z,19.36
2023-05-14T22:01:01.566Z,18.89
2023-05-14T22:03:29.339Z,18.96
2023-05-14T22:05:58.651Z,19.18
2023-05-14T22:08:27.228Z,18.84
2023-05-14T22:10:54.974Z,19.07
2023-05-14T22:13:22.756Z,18.82
2023-05-14T22:15:58.113Z,19.49
2023-05-14T22:18:34.208Z,18.96
2023-05-14T22:21:03.348Z,18.90
2023-05-14T22:23:31.052Z,18.86
2023-05-14T22:25:59.038Z,18.72
2023-05-14T22:28:26.765Z,18.58
2023-05-14T22:30:55.212Z,18.39
2023-05-14T22:33:23.007Z,18.61
2023-05-14T22:35:50.743Z,18.23
2023-05-14T22:38:20.599Z,17.98
2023-05-14T22:40:48.334Z,17.81
2023-05-14T22:43:16.108Z,18.21
2023-05-14T22:45:45.399Z,18.05
2023-05-14T22:48:13.488Z,17.91
2023-05-14T22:50:41.229Z,17.92
2023-05-14T22:53:08.930Z,17.94
2023-05-14T22:55:38.066Z,17.74
2023-05-14T22:58:05.789Z,17.73
2023-05-14T23:00:33.642Z,18.03
2023-05-14T23:03:01.474Z,17.78
2023-05-14T23:05:29.267Z,17.45
2023-05-14T23:07:57.190Z,17.52
2023-05-14T23:10:26.090Z,17.58
2023-05-14T23:12:55.218Z,18.10
2023-05-14T23:15:23.251Z,17.55
2023-05-14T23:17:51.299Z,17.60
2023-05-14T23:20:19.099Z,17.79
2023-05-14T23:22:46.817Z,17.72
2023-05-14T23:25:14.598Z,17.46
2023-05-14T23:27:42.399Z,17.73
2023-05-14T23:30:12.677Z,17.29
2023-05-14T23:32:40.440Z,17.40
2023-05-14T23:35:08.825Z,17.52
2023-05-14T23:37:41.623Z,17.21
2023-05-14T23:40:10.498Z,17.27
2023-05-14T23:42:38.192Z,17.22
2023-05-14T23:45:06.607Z,17.69
2023-05-14T23:47:36.053Z,17.17
2023-05-14T23:50:04.530Z,17.20
2023-05-14T23:52:32.710Z,17.14
2023-05-14T23:55:00.592Z,16.71
2023-05-14T23:57:28.419Z,16.87
2023-05-14T23:59:56.277Z,16.53
